createdAt,value
2023-02-24T00:01:51.674Z,101553.22
2023-02-24T00:04:21.520Z,101547.22
2023-02-24T00:06:50.660Z,101546.41
2023-02-24T00:09:20.616Z,101544.72
2023-02-24T00:11:53.894Z,101541.22
2023-02-24T00:14:22.157Z,101536.88
2023-02-24T00:16:50.000Z,101535.03
2023-02-24T00:19:19.988Z,101528.41
2023-02-24T00:21:48.172Z,101528.59
2023-02-24T00:24:17.243Z,101529.81
2023-02-24T00:26:45.661Z,101528.34
2023-02-24T00:29:14.497Z,101520.50
2023-02-24T00:31:43.089Z,101525.41
2023-02-24T00:34:15.071Z,101528.09
2023-02-24T00:36:42.943Z,101512.00
2023-02-24T00:39:11.131Z,101523.13
2023-02-24T00:41:42.291Z,101515.50
2023-02-24T00:44:12.002Z,101515.69
2023-02-24T00:46:41.638Z,101507.84
2023-02-24T00:49:13.206Z,101511.56
2023-02-24T00:51:43.190Z,101509.25
2023-02-24T00:54:14.861Z,101500.59
2023-02-24T00:56:45.286Z,101497.28
2023-02-24T00:59:14.567Z,101501.78
2023-02-24T01:01:44.297Z,101491.28
2023-02-24T01:04:13.272Z,101495.16
2023-02-24T01:06:43.525Z,101492.88
2023-02-24T01:09:13.684Z,101492.03
2023-02-24T01:11:59.310Z,101493.88
2023-02-24T01:14:31.051Z,101490.38
2023-02-24T01:16:59.197Z,101483.56
2023-02-24T01:19:31.501Z,101492.22
2023-02-24T01:22:01.081Z,101481.53
2023-02-24T01:24:30.267Z,101479.84
2023-02-24T01:26:58.218Z,101478.19
2023-02-24T01:29:26.260Z,101476.53
2023-02-24T01:31:58.120Z,101471.19
2023-02-24T01:34:26.909Z,101465.00
2023-02-24T01:36:55.354Z,101459.84
2023-02-24T01:39:23.200Z,101449.13
2023-02-24T01:41:53.019Z,101448.09
2023-02-24T01:44:59.286Z,101448.94
2023-02-24T01:47:31.229Z,101448.09
2023-02-24T01:49:59.176Z,101441.28
2023-02-24T01:52:31.442Z,101439.63
2023-02-24T01:55:05.103Z,101442.31
2023-02-24T01:57:36.790Z,101435.28
2023-02-24T02:00:30.660Z,101426.22
2023-02-24T02:03:01.861Z,101428.91
2023-02-24T02:05:29.727Z,101425.41
2023-02-24T02:07:58.349Z,101414.22
2023-02-24T02:10:28.589Z,101409.72
2023-02-24T02:12:56.945Z,101407.41
2023-02-24T02:15:24.926Z,101397.72
2023-02-24T02:18:03.183Z,101393.19
2023-02-24T02:21:07.076Z,101383.94
2023-02-24T02:23:57.943Z,101376.47
2023-02-24T02:26:57.825Z,101378.34
2023-02-24T02:29:45.286Z,101375.66
2023-02-24T02:32:31.509Z,101371.13
2023-02-24T02:35:09.841Z,101362.06
2023-02-24T02:37:49.730Z,101357.53
2023-02-24T02:40:26.695Z,101358.19
2023-02-24T02:42:59.738Z,101353.84
2023-02-24T02:45:32.950Z,101357.53
2023-02-24T02:48:04.217Z,101356.72
2023-02-24T02:50:43.293Z,101349.69
2023-02-24T02:53:15.512Z,101348.03
2023-02-24T02:55:49.648Z,101347.41
2023-02-24T02:58:23.580Z,101342.25
2023-02-24T03:01:02.531Z,101336.72
2023-02-24T03:03:33.442Z,101340.22
2023-02-24T03:06:06.376Z,101335.06
2023-02-24T03:08:38.918Z,101337.53
2023-02-24T03:11:12.529Z,101334.03
2023-02-24T03:13:44.212Z,101335.88
2023-02-24T03:16:14.635Z,101329.88
2023-02-24T03:18:50.944Z,101332.56
2023-02-24T03:21:29.648Z,101327.22
2023-02-24T03:23:57.613Z,101328.03
2023-02-24T03:26:28.368Z,101323.69
2023-02-24T03:29:01.719Z,101321.84
2023-02-24T03:31:34.527Z,101315.47
2023-02-24T03:34:10.251Z,101313.81
2023-02-24T03:36:39.857Z,101321.03
2023-02-24T03:39:11.407Z,101304.53
2023-02-24T03:41:45.156Z,101307.00
2023-02-24T03:44:14.773Z,101309.69
2023-02-24T03:46:43.065Z,101305.34
2023-02-24T03:49:14.305Z,101307.19
2023-02-24T03:51:45.103Z,101304.72
2023-02-24T03:54:30.532Z,101296.88
2023-02-24T03:57:14.161Z,101284.53
2023-02-24T03:59:52.841Z,101276.69
2023-02-24T04:02:23.507Z,101276.69
2023-02-24T04:04:56.194Z,101282.03
2023-02-24T04:07:37.748Z,101282.03
2023-02-24T04:10:12.719Z,101279.38
2023-02-24T04:12:46.999Z,101282.22
2023-02-24T04:15:21.749Z,101276.88
2023-02-24T04:17:53.202Z,101272.53
2023-02-24T04:20:23.687Z,101269.03
2023-02-24T04:22:59.475Z,101264.50
2023-02-24T04:25:28.969Z,101262.84
2023-02-24T04:28:01.880Z,101259.34
2023-02-24T04:30:36.143Z,101268.41
2023-02-24T04:33:04.171Z,101255.03
2023-02-24T04:35:33.046Z,101261.22
2023-02-24T04:38:02.251Z,101256.03
2023-02-24T04:40:30.037Z,101256.03
2023-02-24T04:42:57.936Z,101260.56
2023-02-24T04:45:27.804Z,101260.56
2023-02-24T04:48:00.883Z,101258.09
2023-02-24T04:50:32.835Z,101257.25
2023-02-24T04:53:06.668Z,101248.81
2023-02-24T04:55:40.000Z,101254.16
2023-02-24T04:58:08.584Z,101238.47
2023-02-24T05:00:36.276Z,101238.09
2023-02-24T05:03:05.924Z,101227.78
2023-02-24T05:05:34.275Z,101234.59
2023-02-24T05:08:06.413Z,101229.22
2023-02-24T05:10:38.843Z,101226.75
2023-02-24T05:13:09.031Z,101225.94
2023-02-24T05:15:41.704Z,101218.91
2023-02-24T05:18:14.107Z,101207.38
2023-02-24T05:21:02.159Z,101203.69
2023-02-24T05:23:34.411Z,101204.91
2023-02-24T05:26:03.308Z,101199.34
2023-02-24T05:28:31.915Z,101198.53
2023-02-24T05:31:08.437Z,101196.88
2023-02-24T05:33:37.710Z,101203.06
2023-02-24T05:36:08.210Z,101206.75
2023-02-24T05:38:38.243Z,101190.69
2023-02-24T05:41:08.265Z,101187.41
2023-02-24T05:43:39.251Z,101186.56
2023-02-24T05:46:07.268Z,101188.63
2023-02-24T05:48:35.342Z,101180.59
2023-02-24T05:51:05.247Z,101173.56
2023-02-24T05:53:33.560Z,101176.06
2023-02-24T05:56:05.565Z,101168.22
2023-02-24T05:58:33.340Z,101167.22
2023-02-24T06:01:05.970Z,101168.22
2023-02-24T06:03:35.580Z,101163.91
2023-02-24T06:06:08.936Z,101151.53
2023-02-24T06:08:42.296Z,101153.38
2023-02-24T06:11:12.962Z,101146.19
2023-02-24T06:13:40.698Z,101145.38
2023-02-24T06:16:12.811Z,101134.03
2023-02-24T06:18:40.837Z,101132.19
2023-02-24T06:21:09.259Z,101138.56
2023-02-24T06:23:36.951Z,101138.75
2023-02-24T06:26:05.581Z,101137.94
2023-02-24T06:28:34.643Z,101135.25
2023-02-24T06:31:06.811Z,101129.91
2023-02-24T06:33:35.970Z,101122.06
2023-02-24T06:36:05.096Z,101120.41
2023-02-24T06:38:33.250Z,101130.28
2023-02-24T06:41:04.095Z,101117.94
2023-02-24T06:43:31.852Z,101111.75
2023-02-24T06:46:02.981Z,101102.91
2023-02-24T06:48:30.718Z,101104.56
2023-02-24T06:50:58.429Z,101098.59
2023-02-24T06:53:26.764Z,101100.44
2023-02-24T06:55:55.090Z,101101.44
2023-02-24T06:58:24.306Z,101107.81
2023-02-24T07:00:57.756Z,101088.28
2023-02-24T07:03:39.568Z,101097.13
2023-02-24T07:06:22.059Z,101089.50
2023-02-24T07:08:49.921Z,101091.16
2023-02-24T07:11:19.313Z,101082.28
2023-02-24T07:13:48.589Z,101084.97
2023-02-24T07:16:17.963Z,101074.25
2023-02-24T07:18:48.697Z,101070.97
2023-02-24T07:21:20.625Z,101067.25
2023-02-24T07:23:49.694Z,101070.13
2023-02-24T07:26:19.850Z,101069.31
2023-02-24T07:28:49.934Z,101069.31
2023-02-24T07:31:21.142Z,101064.97
2023-02-24T07:33:55.612Z,101062.50
2023-02-24T07:36:24.106Z,101060.84
2023-02-24T07:38:54.294Z,101054.47
2023-02-24T07:41:23.924Z,101053.66
2023-02-24T07:43:51.983Z,101047.47
2023-02-24T07:46:24.523Z,101050.16
2023-02-24T07:48:54.887Z,101058.38
2023-02-24T07:51:25.511Z,101062.06
2023-02-24T07:53:56.743Z,101057.56
2023-02-24T07:56:27.091Z,101055.06
2023-02-24T07:58:59.291Z,101056.91
2023-02-24T08:01:28.515Z,101052.41
2023-02-24T08:04:01.410Z,101040.25
2023-02-24T08:06:37.861Z,101037.56
2023-02-24T08:09:18.034Z,101034.91
2023-02-24T08:11:49.189Z,101020.69
2023-02-24T08:14:16.998Z,101018.22
2023-02-24T08:16:46.226Z,101008.34
2023-02-24T08:19:20.906Z,101006.69
2023-02-24T08:21:52.647Z,101008.34
2023-02-24T08:24:25.370Z,101013.06
2023-02-24T08:27:04.332Z,101005.69
2023-02-24T08:29:40.106Z,100999.50
2023-02-24T08:32:09.438Z,100988.81
2023-02-24T08:34:39.462Z,100985.31
2023-02-24T08:37:07.199Z,100987.97
2023-02-24T08:39:36.498Z,100993.53
2023-02-24T08:42:04.926Z,100991.69
2023-02-24T08:44:34.988Z,100984.69
2023-02-24T08:47:05.310Z,100974.81
2023-02-24T08:49:33.329Z,100968.88
2023-02-24T08:52:02.580Z,100968.53
2023-02-24T08:54:32.144Z,100976.41
2023-02-24T08:57:08.249Z,100975.84
2023-02-24T08:59:43.574Z,100972.16
2023-02-24T09:02:24.356Z,100967.28
2023-02-24T09:04:54.644Z,100954.91
2023-02-24T09:07:26.144Z,100967.69
2023-02-24T09:09:56.354Z,100950.78
2023-02-24T09:12:25.863Z,100948.69
2023-02-24T09:14:56.492Z,100932.59
2023-02-24T09:17:49.801Z,100919.41
2023-02-24T09:20:51.547Z,100920.84
2023-02-24T09:23:29.914Z,100924.97
2023-02-24T09:25:57.790Z,100923.72
2023-02-24T09:28:26.706Z,100917.56
2023-02-24T09:30:56.108Z,100914.03
2023-02-24T09:33:29.322Z,100904.56
2023-02-24T09:36:09.716Z,100899.63
2023-02-24T09:38:57.715Z,100887.66
2023-02-24T09:41:33.054Z,100885.41
2023-02-24T09:44:07.399Z,100889.09
2023-02-24T09:46:53.877Z,100896.50
2023-02-24T09:49:25.185Z,100888.88
2023-02-24T09:52:00.569Z,100889.72
2023-02-24T09:54:35.370Z,100878.38
2023-02-24T09:57:16.764Z,100887.44
2023-02-24T10:00:21.975Z,100880.03
2023-02-24T10:03:00.230Z,100873.25
2023-02-24T10:05:38.309Z,100870.75
2023-02-24T10:08:14.560Z,100864.16
2023-02-24T10:11:00.732Z,100856.34
2023-02-24T10:13:33.294Z,100859.84
2023-02-24T10:16:07.035Z,100856.16
2023-02-24T10:18:42.665Z,100855.31
2023-02-24T10:21:30.491Z,100852.66
2023-02-24T10:24:09.160Z,100858.81
2023-02-24T10:27:00.337Z,100848.94
2023-02-24T10:29:43.369Z,100856.97
2023-02-24T10:32:23.821Z,100859.66
2023-02-24T10:34:52.075Z,100846.69
2023-02-24T10:37:28.141Z,100839.28
2023-02-24T10:39:58.491Z,100841.75
2023-02-24T10:42:31.833Z,100822.78
2023-02-24T10:45:17.274Z,100835.97
2023-02-24T10:47:56.279Z,100833.09
2023-02-24T10:50:27.698Z,100831.84
2023-02-24T10:53:34.410Z,100823.84
2023-02-24T10:56:27.591Z,100819.31
2023-02-24T10:59:18.756Z,100817.06
2023-02-24T11:01:55.122Z,100818.50
2023-02-24T11:04:43.826Z,100813.16
2023-02-24T11:07:24.522Z,100812.31
2023-02-24T11:10:11.261Z,100815.81
2023-02-24T11:13:10.594Z,100813.97
2023-02-24T11:16:03.092Z,100801.41
2023-02-24T11:18:32.362Z,100792.78
2023-02-24T11:21:03.281Z,100789.28
2023-02-24T11:23:36.033Z,100778.56
2023-02-24T11:26:07.741Z,100790.91
2023-02-24T11:28:50.760Z,100776.72
2023-02-24T11:31:36.242Z,100773.03
2023-02-24T11:34:11.027Z,100770.16
2023-02-24T11:36:54.441Z,100771.78
2023-02-24T11:39:41.264Z,100757.38
2023-02-24T11:42:14.849Z,100749.38
2023-02-24T11:44:52.200Z,100755.75
2023-02-24T11:47:26.796Z,100755.53
2023-02-24T11:50:05.015Z,100746.06
2023-02-24T11:52:39.102Z,100735.38
2023-02-24T11:55:20.993Z,100738.88
2023-02-24T11:57:53.700Z,100737.03
2023-02-24T12:00:24.759Z,100732.69
2023-02-24T12:03:02.292Z,100740.50
2023-02-24T12:05:36.953Z,100730.03
2023-02-24T12:08:10.790Z,100729.41
2023-02-24T12:10:47.330Z,100724.06
2023-02-24T12:13:25.233Z,100723.03
2023-02-24T12:15:59.941Z,100717.06
2023-02-24T12:18:34.984Z,100702.66
2023-02-24T12:21:06.782Z,100712.72
2023-02-24T12:23:37.530Z,100711.28
2023-02-24T12:26:17.893Z,100698.53
2023-02-24T12:29:01.398Z,100698.34
2023-02-24T12:31:38.103Z,100692.97
2023-02-24T12:34:14.453Z,100701.84
2023-02-24T12:37:16.673Z,100694.84
2023-02-24T12:39:54.083Z,100693.19
2023-02-24T12:42:31.658Z,100685.16
2023-02-24T12:45:05.016Z,100682.50
2023-02-24T12:47:43.875Z,100681.06
2023-02-24T12:50:24.310Z,100682.69
2023-02-24T12:53:02.061Z,100666.66
2023-02-24T12:55:41.062Z,100665.00
2023-02-24T12:58:13.355Z,100657.19
2023-02-24T13:00:54.367Z,100652.88
2023-02-24T13:03:58.865Z,100646.69
2023-02-24T13:06:39.253Z,100652.66
2023-02-24T13:09:13.107Z,100652.03
2023-02-24T13:11:47.170Z,100650.41
2023-02-24T13:14:22.288Z,100653.69
2023-02-24T13:16:50.127Z,100644.03
2023-02-24T13:19:29.330Z,100619.34
2023-02-24T13:22:09.745Z,100612.94
2023-02-24T13:24:38.808Z,100618.72
2023-02-24T13:27:09.216Z,100617.06
2023-02-24T13:29:47.695Z,100619.53
2023-02-24T13:32:33.105Z,100624.06
2023-02-24T13:35:03.602Z,100610.69
2023-02-24T13:37:36.416Z,100610.69
2023-02-24T13:40:26.647Z,100595.25
2023-02-24T13:43:00.716Z,100581.66
2023-02-24T13:45:30.160Z,100569.75
2023-02-24T13:48:28.560Z,100580.22
2023-02-24T13:51:10.960Z,100581.25
2023-02-24T13:54:02.506Z,100589.50
2023-02-24T13:56:43.057Z,100586.00
2023-02-24T13:59:43.551Z,100576.31
2023-02-24T14:02:16.521Z,100577.97
2023-02-24T14:04:50.188Z,100584.56
2023-02-24T14:07:22.737Z,100582.09
2023-02-24T14:09:56.240Z,100583.94
2023-02-24T14:12:27.686Z,100576.94
2023-02-24T14:14:55.957Z,100568.72
2023-02-24T14:17:28.404Z,100568.91
2023-02-24T14:19:57.748Z,100562.53
2023-02-24T14:22:25.467Z,100562.53
2023-02-24T14:25:03.475Z,100559.66
2023-02-24T14:27:31.585Z,100558.63
2023-02-24T14:30:00.371Z,100554.09
2023-02-24T14:32:29.350Z,100547.09
2023-02-24T14:34:57.350Z,100552.25
2023-02-24T14:37:27.571Z,100548.75
2023-02-24T14:39:56.751Z,100555.72
2023-02-24T14:42:26.633Z,100547.09
2023-02-24T14:44:55.977Z,100543.59
2023-02-24T14:47:26.062Z,100550.59
2023-02-24T14:49:56.702Z,100544.22
2023-02-24T14:52:33.076Z,100536.81
2023-02-24T14:55:06.092Z,100539.69
2023-02-24T14:57:41.360Z,100545.66
2023-02-24T15:00:17.432Z,100544.22
2023-02-24T15:02:50.478Z,100550.38
2023-02-24T15:05:18.387Z,100535.78
2023-02-24T15:07:46.751Z,100529.81
2023-02-24T15:10:23.446Z,100537.00
2023-02-24T15:12:55.332Z,100545.84
2023-02-24T15:15:27.087Z,100534.75
2023-02-24T15:17:57.865Z,100535.34
2023-02-24T15:20:31.246Z,100525.25
2023-02-24T15:22:59.604Z,100525.25
2023-02-24T15:25:41.809Z,100521.56
2023-02-24T15:28:25.743Z,100518.88
2023-02-24T15:31:01.390Z,100502.81
2023-02-24T15:33:35.250Z,100503.66
2023-02-24T15:36:09.396Z,100511.47
2023-02-24T15:38:39.534Z,100498.91
2023-02-24T15:41:08.796Z,100506.72
2023-02-24T15:43:39.631Z,100512.88
2023-02-24T15:46:21.957Z,100508.56
2023-02-24T15:48:51.760Z,100516.81
2023-02-24T15:51:28.893Z,100533.28
2023-02-24T15:53:56.704Z,100543.59
2023-02-24T15:56:24.660Z,100526.31
2023-02-24T15:58:53.935Z,100513.34
2023-02-24T16:01:21.798Z,100525.31
2023-02-24T16:03:49.740Z,100521.81
2023-02-24T16:06:21.243Z,100509.69
2023-02-24T16:08:52.057Z,100501.66
2023-02-24T16:11:24.247Z,100499.59
2023-02-24T16:13:55.359Z,100504.94
2023-02-24T16:16:24.991Z,100514.81
2023-02-24T16:18:52.875Z,100512.75
2023-02-24T16:21:20.718Z,100521.59
2023-02-24T16:23:48.717Z,100518.91
2023-02-24T16:26:18.395Z,100516.25
2023-02-24T16:28:52.723Z,100513.16
2023-02-24T16:31:22.201Z,100510.69
2023-02-24T16:33:54.825Z,100502.66
2023-02-24T16:36:24.789Z,100509.66
2023-02-24T16:38:52.869Z,100509.66
2023-02-24T16:41:20.722Z,100504.50
2023-02-24T16:43:48.496Z,100517.69
2023-02-24T16:46:19.341Z,100498.34
2023-02-24T16:48:51.070Z,100500.19
2023-02-24T16:51:18.861Z,100506.56
2023-02-24T16:53:46.783Z,100513.16
2023-02-24T16:56:15.316Z,100505.81
2023-02-24T16:58:43.057Z,100521.81
2023-02-24T17:01:18.256Z,100522.84
2023-02-24T17:03:49.704Z,100521.00
2023-02-24T17:06:18.058Z,100530.47
2023-02-24T17:08:47.165Z,100529.25
2023-02-24T17:11:16.776Z,100531.69
2023-02-24T17:13:44.669Z,100532.72
2023-02-24T17:16:12.951Z,100537.59
2023-02-24T17:18:40.736Z,100529.91
2023-02-24T17:21:13.389Z,100530.84
2023-02-24T17:23:42.523Z,100533.06
2023-02-24T17:26:14.444Z,100539.34
2023-02-24T17:28:42.237Z,100547.03
2023-02-24T17:31:10.083Z,100551.50
2023-02-24T17:33:37.860Z,100550.78
2023-02-24T17:36:05.800Z,100541.59
2023-02-24T17:38:34.899Z,100544.75
2023-02-24T17:41:02.629Z,100555.00
2023-02-24T17:43:30.396Z,100564.41
2023-02-24T17:45:58.238Z,100560.06
2023-02-24T17:48:26.007Z,100558.38
2023-02-24T17:50:53.863Z,100572.81
2023-02-24T17:53:21.606Z,100584.16
2023-02-24T17:56:02.350Z,100583.94
2023-02-24T17:58:31.022Z,100587.44
2023-02-24T18:00:58.813Z,100580.28
2023-02-24T18:03:26.599Z,100582.31
2023-02-24T18:05:59.501Z,100581.25
2023-02-24T18:08:27.333Z,100577.59
2023-02-24T18:10:56.404Z,100586.09
2023-02-24T18:13:24.168Z,100595.00
2023-02-24T18:15:52.049Z,100597.13
2023-02-24T18:18:19.933Z,100595.88
2023-02-24T18:20:47.614Z,100606.09
2023-02-24T18:23:15.865Z,100600.75
2023-02-24T18:25:43.605Z,100586.28
2023-02-24T18:28:12.696Z,100593.25
2023-02-24T18:30:41.072Z,100592.75
2023-02-24T18:33:09.002Z,100596.75
2023-02-24T18:35:38.721Z,100598.69
2023-02-24T18:38:07.019Z,100615.13
2023-02-24T18:40:34.783Z,100616.91
2023-02-24T18:43:02.774Z,100619.22
2023-02-24T18:45:32.471Z,100608.16
2023-02-24T18:48:04.804Z,100617.38
2023-02-24T18:50:33.758Z,100624.56
2023-02-24T18:53:01.517Z,100617.03
2023-02-24T18:55:29.886Z,100623.75
2023-02-24T18:57:57.624Z,100621.38
2023-02-24T19:00:25.412Z,100616.38
2023-02-24T19:02:54.467Z,100625.47
2023-02-24T19:05:22.310Z,100636.25
2023-02-24T19:07:50.031Z,100622.06
2023-02-24T19:10:18.554Z,100624.34
2023-02-24T19:12:47.108Z,100634.66
2023-02-24T19:15:15.031Z,100635.28
2023-02-24T19:17:42.807Z,100640.88
2023-02-24T19:20:14.829Z,100627.66
2023-02-24T19:22:42.660Z,100633.59
2023-02-24T19:25:10.643Z,100647.34
2023-02-24T19:27:38.970Z,100636.56
2023-02-24T19:30:08.001Z,100641.00
2023-02-24T19:32:35.867Z,100635.97
2023-02-24T19:35:03.833Z,100634.19
2023-02-24T19:37:32.977Z,100627.09
2023-02-24T19:40:00.787Z,100635.19
2023-02-24T19:42:29.157Z,100634.00
2023-02-24T19:44:56.841Z,100637.69
2023-02-24T19:47:24.564Z,100639.75
2023-02-24T19:49:52.312Z,100647.16
2023-02-24T19:52:20.016Z,100646.56
2023-02-24T19:54:49.098Z,100639.13
2023-02-24T19:57:16.839Z,100646.34
2023-02-24T19:59:45.429Z,100649.25
2023-02-24T20:02:13.172Z,100647.97
2023-02-24T20:04:41.097Z,100654.59
2023-02-24T20:07:08.943Z,100647.59
2023-02-24T20:09:36.610Z,100656.66
2023-02-24T20:12:05.869Z,100653.78
2023-02-24T20:14:33.566Z,100659.56
2023-02-24T20:17:01.584Z,100651.34
2023-02-24T20:19:29.484Z,100647.84
2023-02-24T20:21:57.220Z,100660.00
2023-02-24T20:24:24.964Z,100667.19
2023-02-24T20:26:52.742Z,100662.47
2023-02-24T20:29:23.078Z,100663.72
2023-02-24T20:31:51.188Z,100662.06
2023-02-24T20:34:19.074Z,100664.13
2023-02-24T20:36:46.817Z,100665.59
2023-02-24T20:39:14.599Z,100676.72
2023-02-24T20:41:42.312Z,100682.25
2023-02-24T20:44:10.555Z,100678.97
2023-02-24T20:46:39.788Z,100680.84
2023-02-24T20:49:10.294Z,100680.41
2023-02-24T20:51:38.704Z,100679.38
2023-02-24T20:54:07.138Z,100690.31
2023-02-24T20:56:37.268Z,100677.75
2023-02-24T20:59:08.081Z,100689.47
2023-02-24T21:01:36.558Z,100693.81
2023-02-24T21:04:06.395Z,100696.06
2023-02-24T21:06:34.635Z,100684.75
2023-02-24T21:09:02.488Z,100703.69
2023-02-24T21:11:30.817Z,100711.09
2023-02-24T21:13:59.430Z,100713.56
2023-02-24T21:16:27.878Z,100712.13
2023-02-24T21:18:57.974Z,100712.94
2023-02-24T21:21:27.509Z,100710.28
2023-02-24T21:23:55.809Z,100715.41
2023-02-24T21:26:26.940Z,100714.38
2023-02-24T21:28:57.650Z,100713.75
2023-02-24T21:31:26.258Z,100716.84
2023-02-24T21:33:54.460Z,100719.72
2023-02-24T21:36:25.532Z,100723.44
2023-02-24T21:38:55.843Z,100719.31
2023-02-24T21:41:24.386Z,100710.06
2023-02-24T21:43:56.254Z,100711.91
2023-02-24T21:46:28.377Z,100704.31
2023-02-24T21:48:57.557Z,100707.81
2023-02-24T21:51:26.388Z,100720.16
2023-02-24T21:53:56.049Z,100720.34
2023-02-24T21:56:25.375Z,100719.72
2023-02-24T21:58:55.420Z,100725.28
2023-02-24T22:01:26.937Z,100728.16
2023-02-24T22:03:55.173Z,100720.56
2023-02-24T22:06:23.246Z,100726.94
2023-02-24T22:08:51.142Z,100720.34
2023-02-24T22:11:20.456Z,100725.69
2023-02-24T22:13:48.772Z,100738.44
2023-02-24T22:16:19.012Z,100730.41
2023-02-24T22:18:47.949Z,100725.91
2023-02-24T22:21:18.100Z,100727.53
2023-02-24T22:23:46.979Z,100725.91
2023-02-24T22:26:16.690Z,100731.25
2023-02-24T22:28:47.759Z,100738.84
2023-02-24T22:31:17.938Z,100734.53
2023-02-24T22:33:46.292Z,100748.72
2023-02-24T22:36:16.290Z,100754.28
2023-02-24T22:38:45.610Z,100740.50
2023-02-24T22:41:15.951Z,100749.53
2023-02-24T22:43:45.306Z,100748.31
2023-02-24T22:46:15.103Z,100744.38
2023-02-24T22:48:43.141Z,100724.84
2023-02-24T22:51:12.483Z,100733.06
2023-02-24T22:53:42.637Z,100732.66
2023-02-24T22:56:12.829Z,100722.78
2023-02-24T22:58:40.903Z,100725.25
2023-02-24T23:01:11.954Z,100726.28
2023-02-24T23:03:40.188Z,100735.94
2023-02-24T23:06:10.022Z,100736.97
2023-02-24T23:08:39.571Z,100738.81
2023-02-24T23:11:10.860Z,100738.00
2023-02-24T23:13:39.863Z,100739.84
2023-02-24T23:16:09.612Z,100743.34
2023-02-24T23:18:38.979Z,100752.00
2023-02-24T23:21:09.142Z,100746.84
2023-02-24T23:23:37.592Z,100757.75
2023-02-24T23:26:06.237Z,100762.06
2023-02-24T23:28:34.011Z,100762.25
2023-02-24T23:31:01.892Z,100756.91
2023-02-24T23:33:29.987Z,100754.44
2023-02-24T23:36:04.366Z,100760.63
2023-02-24T23:38:32.941Z,100758.78
2023-02-24T23:41:01.142Z,100764.13
2023-02-24T23:43:28.871Z,100757.75
2023-02-24T23:45:56.963Z,100762.06
2023-02-24T23:48:24.720Z,100764.75
2023-02-24T23:50:57.044Z,100762.88
2023-02-24T23:53:26.350Z,100775.63
2023-02-24T23:55:54.087Z,100772.97
2023-02-24T23:58:21.788Z,100773.38
